Time,TemperatureF,DewpointF,PressureIn,WindDirection,WindDirectionDegrees,WindSpeedMPH,WindSpeedGustMPH,Humidity,HourlyPrecipIn,Conditions,Clouds,dailyrainin,SoftwareType,DateUTC
2013-03-27 00:01:00,51.2,47.8,29.86,East,86,0.0,1.0,88,0.00,,SCT280,0.00,VWS V13.01,2013-03-27 07:01:00,
2013-03-27 00:06:00,51.1,47.7,29.86,East,85,0.0,1.0,88,0.00,,OVC015,0.00,VWS V13.01,2013-03-27 07:06:00,
2013-03-27 00:11:00,51.1,48.0,29.86,NE,53,0.0,1.0,89,0.00,,OVC015,0.00,VWS V13.01,2013-03-27 07:11:00,
2013-03-27 00:16:00,51.1,48.3,29.86,ENE,64,1.0,3.0,90,0.00,,OVC015,0.00,VWS V13.01,2013-03-27 07:16:00,
2013-03-27 00:21:00,51.2,48.4,29.86,East,99,0.0,3.0,90,0.00,,OVC015,0.00,VWS V13.01,2013-03-27 07:21:00,
2013-03-27 00:26:00,51.2,48.4,29.85,East,86,0.0,3.0,90,0.00,,OVC015,0.00,VWS V13.01,2013-03-27 07:26:00,
2013-03-27 00:31:00,51.2,48.4,29.85,East,86,0.0,3.0,90,0.00,,OVC015,0.00,VWS V13.01,2013-03-27 07:31:00,
2013-03-27 00:36:00,51.4,48.6,29.85,East,79,0.0,3.0,90,0.00,,OVC015,0.00,VWS V13.01,2013-03-27 07:36:00,
2013-03-27 00:41:00,51.5,48.7,29.85,NE,50,0.0,0.0,90,0.00,,OVC015,0.00,VWS V13.01,2013-03-27 07:41:00,
2013-03-27 00:46:00,51.5,48.7,29.85,ENE,63,0.0,2.0,90,0.00,,OVC015,0.00,VWS V13.01,2013-03-27 07:46:00,
2013-03-27 00:51:00,51.5,48.7,29.84,NE,54,0.0,2.0,90,0.00,,OVC015,0.00,VWS V13.01,2013-03-27 07:51:00,
2013-03-27 00:56:00,51.6,48.8,29.84,NE,54,0.0,2.0,90,0.00,,OVC015,0.00,VWS V13.01,2013-03-27 07:56:00,
2013-03-27 01:06:00,51.5,48.7,29.84,ENE,60,0.0,2.0,90,0.00,,OVC015,0.00,VWS V13.01,2013-03-27 08:06:00,
2013-03-27 01:16:00,51.7,48.9,29.84,ENE,77,0.0,1.0,90,0.00,,OVC015,0.00,VWS V13.01,2013-03-27 08:16:00,
2013-03-27 01:21:00,51.7,48.9,29.83,ENE,77,0.0,1.0,90,0.00,,OVC015,0.00,VWS V13.01,2013-03-27 08:21:00,
2013-03-27 01:26:00,51.7,48.9,29.83,ENE,77,0.0,1.0,90,0.00,,OVC015,0.00,VWS V13.01,2013-03-27 08:26:00,
2013-03-27 01:31:00,51.7,48.9,29.83,ENE,77,0.0,1.0,90,0.00,,OVC015,0.00,VWS V13.01,2013-03-27 08:31:00,
2013-03-27 01:37:00,51.6,48.8,29.83,ENE,77,0.0,1.0,90,0.00,,OVC015,0.00,VWS V13.01,2013-03-27 08:37:00,
2013-03-27 01:42:00,51.6,48.8,29.83,ENE,77,0.0,0.0,90,0.00,,OVC015,0.00,VWS V13.01,2013-03-27 08:42:00,
2013-03-27 01:47:00,51.6,48.8,29.83,ENE,77,0.0,1.0,90,0.00,,OVC015,0.00,VWS V13.01,2013-03-27 08:47:00,
2013-03-27 01:52:00,51.5,48.7,29.83,ENE,77,0.0,1.0,90,0.00,,OVC015,0.00,VWS V13.01,2013-03-27 08:52:00,
2013-03-27 01:57:00,51.3,48.2,29.83,ENE,72,0.0,2.0,89,0.00,,OVC015,0.00,VWS V13.01,2013-03-27 08:57:00,
2013-03-27 02:02:00,51.2,48.4,29.83,ENE,74,0.0,2.0,90,0.00,,OVC015,0.00,VWS V13.01,2013-03-27 09:02:00,
2013-03-27 02:07:00,51.1,48.3,29.83,ENE,74,0.0,2.0,90,0.00,,OVC015,0.00,VWS V13.01,2013-03-27 09:07:00,
2013-03-27 02:12:00,50.9,48.1,29.83,ENE,73,0.0,1.0,90,0.00,,OVC015,0.00,VWS V13.01,2013-03-27 09:12:00,
2013-03-27 02:17:00,50.8,48.0,29.83,ENE,73,0.0,2.0,90,0.00,,OVC015,0.00,VWS V13.01,2013-03-27 09:17:00,
2013-03-27 02:22:00,50.7,47.9,29.83,ENE,73,0.0,2.0,90,0.00,,OVC015,0.00,VWS V13.01,2013-03-27 09:22:00,
2013-03-27 02:27:00,50.6,47.5,29.83,East,83,0.0,2.0,89,0.00,,OVC015,0.00,VWS V13.01,2013-03-27 09:27:00,
2013-03-27 02:32:00,50.5,47.4,29.83,East,92,0.0,2.0,89,0.00,,OVC015,0.00,VWS V13.01,2013-03-27 09:32:00,
2013-03-27 02:37:00,50.4,47.3,29.83,ESE,112,0.0,2.0,89,0.00,,OVC015,0.00,VWS V13.01,2013-03-27 09:37:00,
2013-03-27 02:42:00,50.4,47.3,29.82,ESE,103,0.0,1.0,89,0.00,,OVC015,0.00,VWS V13.01,2013-03-27 09:42:00,
2013-03-27 02:47:00,50.3,47.2,29.82,ENE,64,0.0,3.0,89,0.00,,OVC015,0.00,VWS V13.01,2013-03-27 09:47:00,
2013-03-27 02:52:00,50.3,47.5,29.82,NE,55,0.0,3.0,90,0.00,,OVC015,0.00,VWS V13.01,2013-03-27 09:52:00,
2013-03-27 02:57:00,50.2,47.4,29.82,ENE,60,0.0,3.0,90,0.00,,OVC015,0.00,VWS V13.01,2013-03-27 09:57:00,
2013-03-27 03:02:00,50.3,47.5,29.82,ENE,60,0.0,3.0,90,0.00,,OVC015,0.00,VWS V13.01,2013-03-27 10:02:00,
2013-03-27 03:07:00,50.4,47.9,29.81,ENE,60,0.0,3.0,91,0.00,,OVC015,0.00,VWS V13.01,2013-03-27 10:07:00,
2013-03-27 03:12:00,50.5,48.0,29.81,ENE,60,0.0,1.0,91,0.00,,OVC015,0.00,VWS V13.01,2013-03-27 10:12:00,
2013-03-27 03:17:00,50.4,47.6,29.81,ENE,60,0.0,1.0,90,0.00,,OVC015,0.00,VWS V13.01,2013-03-27 10:17:00,
2013-03-27 03:22:00,50.4,47.9,29.81,ENE,60,0.0,1.0,91,0.00,,OVC015,0.00,VWS V13.01,2013-03-27 10:22:00,
2013-03-27 03:27:00,50.5,48.0,29.81,ENE,60,0.0,1.0,91,0.00,,OVC015,0.00,VWS V13.01,2013-03-27 10:27:00,
2013-03-27 03:32:00,50.6,48.1,29.82,ENE,60,1.0,1.0,91,0.00,,OVC015,0.00,VWS V13.01,2013-03-27 10:32:00,
2013-03-27 03:37:00,50.6,47.8,29.82,ENE,69,0.0,1.0,90,0.00,,OVC015,0.00,VWS V13.01,2013-03-27 10:37:00,
2013-03-27 03:42:00,50.5,47.7,29.81,ENE,66,0.0,2.0,90,0.00,,OVC015,0.00,VWS V13.01,2013-03-27 10:42:00,
2013-03-27 03:47:00,50.4,47.6,29.81,NE,53,2.0,3.0,90,0.00,,OVC015,0.00,VWS V13.01,2013-03-27 10:47:00,
2013-03-27 03:52:00,50.4,47.6,29.81,NE,53,0.0,3.0,90,0.00,,OVC015,0.00,VWS V13.01,2013-03-27 10:52:00,
2013-03-27 03:57:00,50.3,47.5,29.81,NE,53,0.0,3.0,90,0.00,,OVC015,0.00,VWS V13.01,2013-03-27 10:57:00,
2013-03-27 04:02:00,50.2,47.4,29.81,NE,53,0.0,3.0,90,0.00,,OVC015,0.00,VWS V13.01,2013-03-27 11:02:00,
2013-03-27 04:07:00,50.2,47.4,29.82,NE,53,0.0,3.0,90,0.00,,OVC015,0.00,VWS V13.01,2013-03-27 11:07:00,
2013-03-27 04:12:00,50.3,47.5,29.82,NE,53,1.0,1.0,90,0.00,,OVC015,0.00,VWS V13.01,2013-03-27 11:12:00,
2013-03-27 04:17:00,50.2,47.4,29.82,NE,53,0.0,1.0,90,0.00,,OVC015,0.00,VWS V13.01,2013-03-27 11:17:00,
2013-03-27 04:22:00,50.2,47.4,29.82,NE,53,0.0,1.0,90,0.00,,OVC015,0.00,VWS V13.01,2013-03-27 11:22:00,
2013-03-27 04:27:00,50.2,47.4,29.82,NE,53,0.0,2.0,90,0.00,,OVC015,0.00,VWS V13.01,2013-03-27 11:27:00,
2013-03-27 04:32:00,50.2,47.4,29.82,NE,53,0.0,2.0,90,0.00,,OVC015,0.00,VWS V13.01,2013-03-27 11:32:00,
2013-03-27 04:37:00,50.1,47.3,29.82,NE,53,0.0,2.0,90,0.00,,OVC015,0.00,VWS V13.01,2013-03-27 11:37:00,
2013-03-27 04:42:00,50.1,47.3,29.82,NE,53,0.0,0.0,90,0.00,,OVC015,0.00,VWS V13.01,2013-03-27 11:42:00,
2013-03-27 04:47:00,50.1,47.3,29.82,NE,53,0.0,1.0,90,0.00,,OVC015,0.00,VWS V13.01,2013-03-27 11:47:00,
2013-03-27 04:52:00,50.2,47.4,29.82,NE,53,0.0,1.0,90,0.00,,OVC015,0.00,VWS V13.01,2013-03-27 11:52:00,
2013-03-27 04:57:00,50.3,47.5,29.82,NE,53,0.0,1.0,90,0.00,,OVC015,0.00,VWS V13.01,2013-03-27 11:57:00,
2013-03-27 05:02:00,50.3,47.5,29.82,NE,53,0.0,1.0,90,0.00,,OVC015,0.00,VWS V13.01,2013-03-27 12:02:00,
2013-03-27 05:07:00,50.4,47.6,29.82,NE,53,0.0,1.0,90,0.00,,OVC015,0.00,VWS V13.01,2013-03-27 12:07:00,
2013-03-27 05:12:00,50.5,47.7,29.82,NE,53,0.0,0.0,90,0.00,,OVC015,0.00,VWS V13.01,2013-03-27 12:12:00,
2013-03-27 05:17:00,50.5,47.7,29.82,NE,53,0.0,1.0,90,0.00,,OVC015,0.00,VWS V13.01,2013-03-27 12:17:00,
2013-03-27 05:22:00,50.5,47.7,29.82,NE,53,1.0,1.0,90,0.00,,OVC015,0.00,VWS V13.01,2013-03-27 12:22:00,
2013-03-27 05:27:00,50.5,47.4,29.82,NE,53,0.0,1.0,89,0.00,,OVC015,0.00,VWS V13.01,2013-03-27 12:27:00,
2013-03-27 05:32:00,50.5,47.4,29.82,NE,53,0.0,1.0,89,0.00,,OVC015,0.00,VWS V13.01,2013-03-27 12:32:00,
2013-03-27 05:37:00,50.5,47.4,29.82,NE,53,0.0,1.0,89,0.00,,OVC015,0.00,VWS V13.01,2013-03-27 12:37:00,
2013-03-27 05:42:00,50.5,47.4,29.82,NE,53,0.0,0.0,89,0.00,,OVC015,0.00,VWS V13.01,2013-03-27 12:42:00,
2013-03-27 05:47:00,50.4,47.3,29.83,NE,53,0.0,0.0,89,0.00,,OVC015,0.00,VWS V13.01,2013-03-27 12:47:00,
2013-03-27 05:52:00,50.4,47.3,29.83,NE,53,0.0,0.0,89,0.00,,OVC015,0.00,VWS V13.01,2013-03-27 12:52:00,
2013-03-27 05:57:00,50.4,47.6,29.83,NE,53,0.0,0.0,90,0.00,,OVC015,0.00,VWS V13.01,2013-03-27 12:57:00,
2013-03-27 06:02:00,50.5,47.7,29.83,NE,53,0.0,0.0,90,0.00,,OVC015,0.00,VWS V13.01,2013-03-27 13:02:00,
2013-03-27 06:08:00,50.5,47.7,29.83,NE,53,0.0,0.0,90,0.00,,OVC015,0.00,VWS V13.01,2013-03-27 13:08:00,
2013-03-27 06:13:00,50.5,47.4,29.84,NE,53,0.0,0.0,89,0.00,,OVC015,0.00,VWS V13.01,2013-03-27 13:13:00,
2013-03-27 06:18:00,50.4,47.3,29.84,NE,53,0.0,1.0,89,0.00,,OVC015,0.00,VWS V13.01,2013-03-27 13:18:00,
2013-03-27 06:23:00,50.4,47.3,29.84,NE,53,0.0,1.0,89,0.00,,OVC015,0.00,VWS V13.01,2013-03-27 13:23:00,
2013-03-27 06:28:00,50.3,47.2,29.84,NE,53,0.0,1.0,89,0.00,,OVC015,0.00,VWS V13.01,2013-03-27 13:28:00,
2013-03-27 06:33:00,50.3,47.2,29.84,NE,53,0.0,1.0,89,0.00,,OVC015,0.00,VWS V13.01,2013-03-27 13:33:00,
2013-03-27 06:38:00,50.3,47.5,29.84,NE,53,0.0,1.0,90,0.00,,OVC015,0.00,VWS V13.01,2013-03-27 13:38:00,
2013-03-27 06:43:00,50.4,47.6,29.85,NE,53,0.0,1.0,90,0.00,,OVC015,0.00,VWS V13.01,2013-03-27 13:43:00,
2013-03-27 06:48:00,50.4,47.6,29.85,NE,53,0.0,1.0,90,0.00,,OVC015,0.00,VWS V13.01,2013-03-27 13:48:00,
2013-03-27 06:53:00,50.5,47.7,29.85,NE,53,0.0,1.0,90,0.00,,OVC015,0.00,VWS V13.01,2013-03-27 13:53:00,
2013-03-27 06:58:00,50.5,47.4,29.85,NE,53,0.0,1.0,89,0.00,,OVC015,0.00,VWS V13.01,2013-03-27 13:58:00,
2013-03-27 07:03:00,50.5,47.4,29.85,NE,53,0.0,1.0,89,0.00,,OVC017,0.00,VWS V13.01,2013-03-27 14:03:00,
2013-03-27 07:08:00,50.5,47.4,29.85,ENE,59,0.0,1.0,89,0.00,,OVC017,0.00,VWS V13.01,2013-03-27 14:08:00,
2013-03-27 07:13:00,50.6,47.5,29.86,ENE,59,0.0,0.0,89,0.00,,OVC017,0.00,VWS V13.01,2013-03-27 14:13:00,
2013-03-27 07:18:00,50.6,47.2,29.86,ENE,59,0.0,0.0,88,0.00,,OVC017,0.00,VWS V13.01,2013-03-27 14:18:00,
2013-03-27 07:23:00,50.6,47.2,29.86,ENE,59,0.0,1.0,88,0.00,,OVC017,0.00,VWS V13.01,2013-03-27 14:23:00,
2013-03-27 07:28:00,50.6,47.5,29.86,ENE,59,1.0,2.0,89,0.00,,OVC017,0.00,VWS V13.01,2013-03-27 14:28:00,
2013-03-27 07:33:00,50.5,47.4,29.86,NE,55,0.0,2.0,89,0.00,,OVC017,0.00,VWS V13.01,2013-03-27 14:33:00,
2013-03-27 07:38:00,50.5,47.4,29.86,NE,55,0.0,2.0,89,0.00,,OVC017,0.00,VWS V13.01,2013-03-27 14:38:00,
2013-03-27 07:43:00,50.6,47.5,29.87,ENE,60,0.0,1.0,89,0.00,,OVC017,0.00,VWS V13.01,2013-03-27 14:43:00,
2013-03-27 07:48:00,50.6,47.5,29.87,ENE,57,0.0,3.0,89,0.00,,OVC017,0.00,VWS V13.01,2013-03-27 14:48:00,
2013-03-27 07:53:00,50.7,47.6,29.87,ENE,57,0.0,3.0,89,0.00,,OVC017,0.00,VWS V13.01,2013-03-27 14:53:00,
2013-03-27 07:58:00,50.8,47.4,29.87,ENE,62,0.0,3.0,88,0.00,,OVC017,0.00,VWS V13.01,2013-03-27 14:58:00,
2013-03-27 08:03:00,50.8,47.4,29.87,ENE,59,1.0,3.0,88,0.00,,OVC019,0.00,VWS V13.01,2013-03-27 15:03:00,
2013-03-27 08:08:00,50.9,47.8,29.87,ENE,59,0.0,3.0,89,0.00,,OVC019,0.00,VWS V13.01,2013-03-27 15:08:00,
2013-03-27 08:13:00,50.9,47.5,29.88,ENE,59,1.0,2.0,88,0.00,,OVC019,0.00,VWS V13.01,2013-03-27 15:13:00,
2013-03-27 08:18:00,51.0,47.6,29.87,ENE,59,0.0,2.0,88,0.00,,OVC019,0.00,VWS V13.01,2013-03-27 15:18:00,
2013-03-27 08:23:00,51.2,47.8,29.87,ENE,59,0.0,2.0,88,0.00,,OVC019,0.00,VWS V13.01,2013-03-27 15:23:00,
2013-03-27 08:28:00,51.3,47.9,29.87,ENE,65,2.0,2.0,88,0.00,,OVC019,0.00,VWS V13.01,2013-03-27 15:28:00,
2013-03-27 08:33:00,51.5,48.1,29.87,ENE,67,1.0,2.0,88,0.00,,OVC019,0.00,VWS V13.01,2013-03-27 15:33:00,
2013-03-27 08:38:00,51.6,48.2,29.87,East,90,1.0,2.0,88,0.00,,OVC019,0.00,VWS V13.01,2013-03-27 15:38:00,
2013-03-27 08:43:00,51.8,48.1,29.87,NE,45,0.0,3.0,87,0.00,,OVC019,0.00,VWS V13.01,2013-03-27 15:43:00,
2013-03-27 08:48:00,52.0,48.3,29.87,ENE,71,0.0,3.0,87,0.00,,OVC019,0.00,VWS V13.01,2013-03-27 15:48:00,
2013-03-27 08:53:00,52.3,48.5,29.87,NE,55,1.0,3.0,87,0.00,,OVC019,0.00,VWS V13.01,2013-03-27 15:53:00,
2013-03-27 08:58:00,52.7,48.6,29.87,NE,54,0.0,3.0,86,0.00,,OVC019,0.00,VWS V13.01,2013-03-27 15:58:00,
2013-03-27 09:03:00,53.1,48.7,29.87,ENE,57,0.0,3.0,85,0.00,,OVC021,0.00,VWS V13.01,2013-03-27 16:03:00,
2013-03-27 09:08:00,53.5,48.8,29.87,SSE,162,0.0,3.0,84,0.00,,OVC021,0.00,VWS V13.01,2013-03-27 16:08:00,
2013-03-27 09:13:00,53.9,49.2,29.87,West,272,0.0,3.0,84,0.00,,OVC021,0.00,VWS V13.01,2013-03-27 16:13:00,
2013-03-27 09:18:00,54.1,49.1,29.87,WNW,297,0.0,4.0,83,0.00,,OVC021,0.00,VWS V13.01,2013-03-27 16:18:00,
2013-03-27 09:23:00,54.3,49.3,29.87,NW,314,0.0,4.0,83,0.00,,OVC021,0.00,VWS V13.01,2013-03-27 16:23:00,
2013-03-27 09:28:00,54.6,49.2,29.88,WNW,290,2.0,4.0,82,0.00,,OVC021,0.00,VWS V13.01,2013-03-27 16:28:00,
2013-03-27 09:33:00,54.8,49.4,29.88,WNW,282,1.0,4.0,82,0.00,,OVC021,0.00,VWS V13.01,2013-03-27 16:33:00,
2013-03-27 09:38:00,55.2,49.5,29.88,WNW,290,0.0,4.0,81,0.00,,OVC021,0.00,VWS V13.01,2013-03-27 16:38:00,
2013-03-27 09:43:00,55.6,49.5,29.88,WNW,289,1.0,3.0,80,0.00,,OVC021,0.00,VWS V13.01,2013-03-27 16:43:00,
2013-03-27 09:48:00,56.0,49.6,29.88,West,263,0.0,4.0,79,0.00,,OVC021,0.00,VWS V13.01,2013-03-27 16:48:00,
2013-03-27 09:53:00,56.2,49.8,29.88,WNW,290,2.0,5.0,79,0.00,,OVC021,0.00,VWS V13.01,2013-03-27 16:53:00,
2013-03-27 09:58:00,56.3,49.9,29.88,SW,225,1.0,5.0,79,0.00,,OVC021,0.00,VWS V13.01,2013-03-27 16:58:00,
2013-03-27 10:03:00,56.5,50.1,29.88,SW,215,2.0,5.0,79,0.00,,OVC025,0.00,VWS V13.01,2013-03-27 17:03:00,
2013-03-27 10:08:00,56.6,50.2,29.88,WSW,237,0.0,5.0,79,0.00,,OVC025,0.00,VWS V13.01,2013-03-27 17:08:00,
2013-03-27 10:13:00,56.8,50.0,29.88,West,281,0.0,2.0,78,0.00,,OVC025,0.00,VWS V13.01,2013-03-27 17:13:00,
2013-03-27 10:18:00,57.0,49.9,29.89,WSW,257,0.0,2.0,77,0.00,,OVC025,0.00,VWS V13.01,2013-03-27 17:18:00,
2013-03-27 10:23:00,57.4,50.3,29.88,NW,308,0.0,5.0,77,0.00,,OVC025,0.00,VWS V13.01,2013-03-27 17:23:00,
2013-03-27 10:28:00,57.8,50.3,29.89,NW,314,0.0,5.0,76,0.00,,OVC025,0.00,VWS V13.01,2013-03-27 17:28:00,
2013-03-27 10:33:00,58.0,50.5,29.89,West,269,1.0,5.0,76,0.00,,OVC025,0.00,VWS V13.01,2013-03-27 17:33:00,
2013-03-27 10:38:00,58.2,50.7,29.89,South,186,0.0,5.0,76,0.00,,OVC025,0.00,VWS V13.01,2013-03-27 17:38:00,
2013-03-27 10:43:00,58.4,50.9,29.89,West,281,1.0,3.0,76,0.00,,OVC025,0.00,VWS V13.01,2013-03-27 17:43:00,
2013-03-27 10:48:00,58.8,50.5,29.89,WNW,284,5.0,5.0,74,0.00,,OVC025,0.00,VWS V13.01,2013-03-27 17:48:00,
2013-03-27 10:53:00,59.1,50.5,29.89,SW,229,3.0,5.0,73,0.00,,OVC025,0.00,VWS V13.01,2013-03-27 17:53:00,
2013-03-27 10:58:00,59.4,51.1,29.89,NNW,348,0.0,5.0,74,0.00,,OVC025,0.00,VWS V13.01,2013-03-27 17:58:00,
2013-03-27 11:03:00,60.1,50.7,29.89,West,271,0.0,5.0,71,0.00,,BKN250,0.00,VWS V13.01,2013-03-27 18:03:00,
2013-03-27 11:08:00,60.6,51.2,29.89,NNW,327,1.0,6.0,71,0.00,,BKN250,0.00,VWS V13.01,2013-03-27 18:08:00,
2013-03-27 11:13:00,60.8,51.0,29.89,WNW,299,3.0,6.0,70,0.00,,BKN250,0.00,VWS V13.01,2013-03-27 18:13:00,
2013-03-27 11:18:00,61.4,51.5,29.89,NNW,327,3.0,6.0,70,0.00,,BKN250,0.00,VWS V13.01,2013-03-27 18:18:00,
2013-03-27 11:23:00,62.0,51.7,29.89,WNW,301,3.0,6.0,69,0.00,,BKN250,0.00,VWS V13.01,2013-03-27 18:23:00,
2013-03-27 11:28:00,62.3,52.0,29.89,SSW,192,1.0,6.0,69,0.00,,BKN250,0.00,VWS V13.01,2013-03-27 18:28:00,
2013-03-27 11:33:00,62.5,51.0,29.89,WNW,302,1.0,6.0,66,0.00,,BKN250,0.00,VWS V13.01,2013-03-27 18:33:00,
2013-03-27 11:38:00,62.4,51.3,29.89,WSW,254,1.0,1.0,67,0.00,,BKN250,0.00,VWS V13.01,2013-03-27 18:38:00,
2013-03-27 11:43:00,62.8,52.1,29.89,NW,314,1.0,4.0,68,0.00,,BKN250,0.00,VWS V13.01,2013-03-27 18:43:00,
2013-03-27 11:48:00,63.2,51.2,29.89,ENE,65,0.0,6.0,65,0.00,,BKN250,0.00,VWS V13.01,2013-03-27 18:48:00,
2013-03-27 11:53:00,63.4,51.0,29.89,SSE,150,0.0,6.0,64,0.00,,BKN250,0.00,VWS V13.01,2013-03-27 18:53:00,
2013-03-27 11:58:00,63.4,51.4,29.88,SW,236,4.0,6.0,65,0.00,,BKN250,0.00,VWS V13.01,2013-03-27 18:58:00,
2013-03-27 12:03:00,63.2,51.2,29.89,West,272,2.0,6.0,65,0.00,,BKN250,0.00,VWS V13.01,2013-03-27 19:03:00,
2013-03-27 12:08:00,63.6,51.6,29.88,SW,234,2.0,3.0,65,0.00,,BKN250,0.00,VWS V13.01,2013-03-27 19:08:00,
2013-03-27 12:13:00,64.2,51.8,29.88,WSW,251,5.0,6.0,64,0.00,,BKN250,0.00,VWS V13.01,2013-03-27 19:13:00,
2013-03-27 12:18:00,64.3,51.9,29.88,WSW,252,2.0,6.0,64,0.00,,BKN250,0.00,VWS V13.01,2013-03-27 19:18:00,
2013-03-27 12:24:00,64.5,51.2,29.88,WSW,251,2.0,7.0,62,0.00,,BKN250,0.00,VWS V13.01,2013-03-27 19:24:00,
2013-03-27 12:29:00,64.3,51.0,29.88,WSW,240,0.0,7.0,62,0.00,,BKN250,0.00,VWS V13.01,2013-03-27 19:29:00,
2013-03-27 12:34:00,64.8,51.9,29.88,SW,226,1.0,7.0,63,0.00,,BKN250,0.00,VWS V13.01,2013-03-27 19:34:00,
2013-03-27 12:39:00,65.4,52.1,29.87,NW,311,0.0,1.0,62,0.00,,BKN250,0.00,VWS V13.01,2013-03-27 19:39:00,
2013-03-27 12:44:00,65.5,51.7,29.87,West,281,8.0,8.0,61,0.00,,BKN250,0.00,VWS V13.01,2013-03-27 19:44:00,
2013-03-27 12:49:00,65.7,52.3,29.87,West,271,1.0,8.0,62,0.00,,BKN250,0.00,VWS V13.01,2013-03-27 19:49:00,
2013-03-27 12:54:00,66.1,51.8,29.87,WNW,297,2.0,8.0,60,0.00,,BKN250,0.00,VWS V13.01,2013-03-27 19:54:00,
2013-03-27 12:59:00,65.7,52.3,29.87,WNW,288,5.0,8.0,62,0.00,,BKN250,0.00,VWS V13.01,2013-03-27 19:59:00,
2013-03-27 13:04:00,65.7,52.3,29.87,WNW,290,1.0,8.0,62,0.00,,BKN250,0.00,VWS V13.01,2013-03-27 20:04:00,
2013-03-27 13:09:00,65.8,52.4,29.87,WNW,284,2.0,5.0,62,0.00,,BKN250,0.00,VWS V13.01,2013-03-27 20:09:00,
2013-03-27 13:14:00,65.6,52.2,29.87,WNW,283,2.0,7.0,62,0.00,,BKN250,0.00,VWS V13.01,2013-03-27 20:14:00,
2013-03-27 13:19:00,65.9,52.5,29.87,West,281,2.0,8.0,62,0.00,,BKN250,0.00,VWS V13.01,2013-03-27 20:19:00,
2013-03-27 13:24:00,66.1,53.2,29.87,NW,316,2.0,8.0,63,0.00,,BKN250,0.00,VWS V13.01,2013-03-27 20:24:00,
2013-03-27 13:29:00,66.6,53.2,29.87,SW,224,1.0,8.0,62,0.00,,BKN250,0.00,VWS V13.01,2013-03-27 20:29:00,
2013-03-27 13:34:00,66.8,53.4,29.87,West,272,1.0,8.0,62,0.00,,BKN250,0.00,VWS V13.01,2013-03-27 20:34:00,
2013-03-27 13:39:00,66.4,53.4,29.87,SW,236,6.0,8.0,63,0.00,,BKN250,0.00,VWS V13.01,2013-03-27 20:39:00,
2013-03-27 13:44:00,66.4,53.4,29.87,NW,323,5.0,8.0,63,0.00,,BKN250,0.00,VWS V13.01,2013-03-27 20:44:00,
2013-03-27 13:49:00,66.2,53.2,29.87,WNW,286,1.0,8.0,63,0.00,,BKN250,0.00,VWS V13.01,2013-03-27 20:49:00,
2013-03-27 13:54:00,66.5,53.5,29.87,WNW,283,2.0,8.0,63,0.00,,BKN250,0.00,VWS V13.01,2013-03-27 20:54:00,
2013-03-27 13:59:00,66.6,53.2,29.87,WSW,252,2.0,9.0,62,0.00,,BKN250,0.00,VWS V13.01,2013-03-27 20:59:00,
2013-03-27 14:04:00,65.9,53.0,29.87,West,270,3.0,9.0,63,0.00,,BKN250,0.00,VWS V13.01,2013-03-27 21:04:00,
2013-03-27 14:09:00,66.2,53.2,29.87,West,269,4.0,4.0,63,0.00,,BKN250,0.00,VWS V13.01,2013-03-27 21:09:00,
2013-03-27 14:14:00,66.3,52.9,29.86,WSW,242,3.0,6.0,62,0.00,,BKN250,0.00,VWS V13.01,2013-03-27 21:14:00,
2013-03-27 14:19:00,66.5,52.7,29.86,WSW,242,0.0,6.0,61,0.00,,BKN250,0.00,VWS V13.01,2013-03-27 21:19:00,
2013-03-27 14:24:00,66.5,52.7,29.86,WNW,291,1.0,7.0,61,0.00,,BKN250,0.00,VWS V13.01,2013-03-27 21:24:00,
2013-03-27 14:29:00,66.2,52.4,29.86,WSW,240,0.0,9.0,61,0.00,,BKN250,0.00,VWS V13.01,2013-03-27 21:29:00,
2013-03-27 14:34:00,66.1,52.7,29.86,West,265,1.0,9.0,62,0.00,,BKN250,0.00,VWS V13.01,2013-03-27 21:34:00,
2013-03-27 14:39:00,66.3,52.9,29.86,West,267,2.0,4.0,62,0.00,,BKN250,0.00,VWS V13.01,2013-03-27 21:39:00,
2013-03-27 14:44:00,66.1,52.7,29.86,SSW,211,0.0,9.0,62,0.00,,BKN250,0.00,VWS V13.01,2013-03-27 21:44:00,
2013-03-27 14:49:00,66.6,52.8,29.86,West,279,3.0,9.0,61,0.00,,BKN250,0.00,VWS V13.01,2013-03-27 21:49:00,
2013-03-27 14:54:00,66.8,52.9,29.86,WSW,238,1.0,9.0,61,0.00,,BKN250,0.00,VWS V13.01,2013-03-27 21:54:00,
2013-03-27 14:59:00,66.8,52.9,29.86,WNW,300,3.0,9.0,61,0.00,,BKN250,0.00,VWS V13.01,2013-03-27 21:59:00,
2013-03-27 15:04:00,66.4,52.6,29.86,WSW,240,4.0,9.0,61,0.00,,CLR,0.00,VWS V13.01,2013-03-27 22:04:00,
2013-03-27 15:09:00,66.3,52.9,29.86,NE,35,0.0,1.0,62,0.00,,CLR,0.00,VWS V13.01,2013-03-27 22:09:00,
2013-03-27 15:14:00,66.4,52.1,29.86,WNW,287,4.0,9.0,60,0.00,,CLR,0.00,VWS V13.01,2013-03-27 22:14:00,
2013-03-27 15:19:00,65.6,51.8,29.86,NW,313,3.0,9.0,61,0.00,,CLR,0.00,VWS V13.01,2013-03-27 22:19:00,
2013-03-27 15:24:00,65.4,52.1,29.86,NW,317,1.0,9.0,62,0.00,,CLR,0.00,VWS V13.01,2013-03-27 22:24:00,
2013-03-27 15:29:00,65.6,51.8,29.86,NW,309,3.0,9.0,61,0.00,,CLR,0.00,VWS V13.01,2013-03-27 22:29:00,
2013-03-27 15:34:00,65.5,52.2,29.86,WSW,239,0.0,9.0,62,0.00,,CLR,0.00,VWS V13.01,2013-03-27 22:34:00,
2013-03-27 15:39:00,65.6,51.8,29.85,West,273,2.0,2.0,61,0.00,,CLR,0.00,VWS V13.01,2013-03-27 22:39:00,
2013-03-27 15:44:00,65.6,51.8,29.86,SSE,151,0.0,6.0,61,0.00,,CLR,0.00,VWS V13.01,2013-03-27 22:44:00,
2013-03-27 15:49:00,65.9,52.1,29.85,SSE,159,2.0,6.0,61,0.00,,CLR,0.00,VWS V13.01,2013-03-27 22:49:00,
2013-03-27 15:54:00,66.0,52.2,29.85,NW,306,0.0,6.0,61,0.00,,CLR,0.00,VWS V13.01,2013-03-27 22:54:00,
2013-03-27 15:59:00,66.4,52.1,29.85,WSW,254,4.0,6.0,60,0.00,,CLR,0.00,VWS V13.01,2013-03-27 22:59:00,
2013-03-27 16:04:00,66.5,52.2,29.85,WNW,294,4.0,6.0,60,0.00,,SCT250,0.00,VWS V13.01,2013-03-27 23:04:00,
2013-03-27 16:09:00,66.7,52.4,29.85,West,267,3.0,4.0,60,0.00,,SCT250,0.00,VWS V13.01,2013-03-27 23:09:00,
2013-03-27 16:14:00,66.4,51.7,29.85,WNW,286,3.0,8.0,59,0.00,,SCT250,0.00,VWS V13.01,2013-03-27 23:14:00,
2013-03-27 16:19:00,65.8,51.5,29.85,NW,325,5.0,8.0,60,0.00,,SCT250,0.00,VWS V13.01,2013-03-27 23:19:00,
2013-03-27 16:24:00,65.7,51.9,29.85,SW,220,0.0,8.0,61,0.00,,SCT250,0.00,VWS V13.01,2013-03-27 23:24:00,
2013-03-27 16:29:00,65.7,51.9,29.85,West,281,1.0,8.0,61,0.00,,SCT250,0.00,VWS V13.01,2013-03-27 23:29:00,
2013-03-27 16:34:00,65.6,51.8,29.85,West,270,1.0,8.0,61,0.00,,SCT250,0.00,VWS V13.01,2013-03-27 23:34:00,
2013-03-27 16:39:00,65.7,52.3,29.85,SW,236,3.0,3.0,62,0.00,,SCT250,0.00,VWS V13.01,2013-03-27 23:39:00,
2013-03-27 16:44:00,66.2,52.4,29.85,NW,304,5.0,5.0,61,0.00,,SCT250,0.00,VWS V13.01,2013-03-27 23:44:00,
2013-03-27 16:49:00,65.9,52.1,29.85,SW,217,3.0,5.0,61,0.00,,SCT250,0.00,VWS V13.01,2013-03-27 23:49:00,
2013-03-27 16:54:00,65.2,52.3,29.85,WNW,294,1.0,8.0,63,0.00,,SCT250,0.00,VWS V13.01,2013-03-27 23:54:00,
2013-03-27 16:59:00,65.2,52.3,29.85,NW,313,2.0,8.0,63,0.00,,SCT250,0.00,VWS V13.01,2013-03-27 23:59:00,
2013-03-27 17:04:00,65.2,52.3,29.86,WSW,237,2.0,8.0,63,0.00,,SCT250,0.00,VWS V13.01,2013-03-28 00:04:00,
2013-03-27 17:09:00,65.0,52.1,29.86,West,277,2.0,3.0,63,0.00,,SCT250,0.00,VWS V13.01,2013-03-28 00:09:00,
2013-03-27 17:14:00,64.8,51.9,29.86,NNW,328,1.0,5.0,63,0.00,,SCT250,0.00,VWS V13.01,2013-03-28 00:14:00,
2013-03-27 17:19:00,64.8,51.9,29.86,NW,304,3.0,5.0,63,0.00,,SCT250,0.00,VWS V13.01,2013-03-28 00:19:00,
2013-03-27 17:24:00,64.1,51.7,29.86,West,281,2.0,6.0,64,0.00,,SCT250,0.00,VWS V13.01,2013-03-28 00:24:00,
2013-03-27 17:29:00,63.6,51.6,29.86,West,264,1.0,6.0,65,0.00,,SCT250,0.00,VWS V13.01,2013-03-28 00:29:00,
2013-03-27 17:34:00,63.2,51.7,29.86,West,277,0.0,6.0,66,0.00,,SCT250,0.00,VWS V13.01,2013-03-28 00:34:00,
2013-03-27 17:39:00,62.8,51.7,29.86,WSW,257,3.0,4.0,67,0.00,,SCT250,0.00,VWS V13.01,2013-03-28 00:39:00,
2013-03-27 17:44:00,62.3,51.6,29.87,NW,310,2.0,7.0,68,0.00,,SCT250,0.00,VWS V13.01,2013-03-28 00:44:00,
2013-03-27 17:49:00,62.2,51.9,29.87,WNW,290,0.0,7.0,69,0.00,,SCT250,0.00,VWS V13.01,2013-03-28 00:49:00,
2013-03-27 17:55:00,62.2,51.9,29.86,WSW,252,1.0,7.0,69,0.00,,SCT250,0.00,VWS V13.01,2013-03-28 00:55:00,
2013-03-27 18:00:00,61.8,51.5,29.87,NW,306,3.0,7.0,69,0.00,,SCT250,0.00,VWS V13.01,2013-03-28 01:00:00,
2013-03-27 18:05:00,60.9,51.5,29.87,WNW,286,0.0,7.0,71,0.00,,SCT250,0.00,VWS V13.01,2013-03-28 01:05:00,
2013-03-27 18:10:00,60.4,51.3,29.87,NW,319,3.0,6.0,72,0.00,,SCT250,0.00,VWS V13.01,2013-03-28 01:10:00,
2013-03-27 18:15:00,59.7,51.0,29.87,WNW,286,5.0,7.0,73,0.00,,SCT250,0.00,VWS V13.01,2013-03-28 01:15:00,
2013-03-27 18:20:00,59.1,50.8,29.87,NW,311,1.0,7.0,74,0.00,,SCT250,0.00,VWS V13.01,2013-03-28 01:20:00,
2013-03-27 18:25:00,58.9,51.0,29.88,WSW,253,2.0,7.0,75,0.00,,SCT250,0.00,VWS V13.01,2013-03-28 01:25:00,
2013-03-27 18:30:00,58.6,51.1,29.87,SW,227,0.0,7.0,76,0.00,,SCT250,0.00,VWS V13.01,2013-03-28 01:30:00,
2013-03-27 18:35:00,58.4,50.9,29.88,WNW,294,0.0,7.0,76,0.00,,SCT250,0.00,VWS V13.01,2013-03-28 01:35:00,
2013-03-27 18:40:00,58.1,50.9,29.88,WSW,250,0.0,2.0,77,0.00,,SCT250,0.00,VWS V13.01,2013-03-28 01:40:00,
2013-03-27 18:45:00,57.8,50.7,29.88,NW,316,2.0,4.0,77,0.00,,SCT250,0.00,VWS V13.01,2013-03-28 01:45:00,
2013-03-27 18:50:00,57.5,50.7,29.88,WNW,302,0.0,4.0,78,0.00,,SCT250,0.00,VWS V13.01,2013-03-28 01:50:00,
2013-03-27 18:55:00,57.2,50.4,29.88,NW,311,3.0,4.0,78,0.00,,SCT250,0.00,VWS V13.01,2013-03-28 01:55:00,
2013-03-27 19:00:00,56.8,50.4,29.88,WNW,298,1.0,4.0,79,0.00,,SCT250,0.00,VWS V13.01,2013-03-28 02:00:00,
2013-03-27 19:05:00,56.5,50.4,29.88,NW,310,0.0,4.0,80,0.00,,SCT250,0.00,VWS V13.01,2013-03-28 02:05:00,
2013-03-27 19:10:00,56.2,50.1,29.88,West,267,1.0,1.0,80,0.00,,SCT250,0.00,VWS V13.01,2013-03-28 02:10:00,
2013-03-27 19:15:00,55.9,50.2,29.88,WNW,287,2.0,2.0,81,0.00,,SCT250,0.00,VWS V13.01,2013-03-28 02:15:00,
2013-03-27 19:20:00,55.7,50.0,29.88,West,281,0.0,2.0,81,0.00,,SCT250,0.00,VWS V13.01,2013-03-28 02:20:00,
2013-03-27 19:25:00,55.5,50.1,29.88,WNW,301,0.0,2.0,82,0.00,,SCT250,0.00,VWS V13.01,2013-03-28 02:25:00,
2013-03-27 19:30:00,55.1,50.0,29.88,NW,309,0.0,3.0,83,0.00,,SCT250,0.00,VWS V13.01,2013-03-28 02:30:00,
2013-03-27 19:35:00,54.8,49.7,29.88,NW,304,0.0,3.0,83,0.00,,SCT250,0.00,VWS V13.01,2013-03-28 02:35:00,
2013-03-27 19:40:00,54.6,49.9,29.88,WNW,296,0.0,1.0,84,0.00,,SCT250,0.00,VWS V13.01,2013-03-28 02:40:00,
2013-03-27 19:45:00,54.5,49.8,29.88,WNW,290,2.0,4.0,84,0.00,,SCT250,0.00,VWS V13.01,2013-03-28 02:45:00,
2013-03-27 19:50:00,54.2,49.8,29.88,West,273,0.0,4.0,85,0.00,,SCT250,0.00,VWS V13.01,2013-03-28 02:50:00,
2013-03-27 19:55:00,54.1,49.7,29.89,NW,310,0.0,4.0,85,0.00,,SCT250,0.00,VWS V13.01,2013-03-28 02:55:00,
2013-03-27 20:00:00,53.9,49.8,29.89,NW,309,0.0,4.0,86,0.00,,SCT250,0.00,VWS V13.01,2013-03-28 03:00:00,
2013-03-27 20:05:00,53.8,49.7,29.89,NW,309,0.0,4.0,86,0.00,,SCT250,0.00,VWS V13.01,2013-03-28 03:05:00,
2013-03-27 20:10:00,53.7,49.6,29.89,NW,309,0.0,0.0,86,0.00,,SCT250,0.00,VWS V13.01,2013-03-28 03:10:00,
2013-03-27 20:15:00,53.6,49.5,29.89,NW,309,0.0,0.0,86,0.00,,SCT250,0.00,VWS V13.01,2013-03-28 03:15:00,
2013-03-27 20:20:00,53.4,49.6,29.90,NW,309,0.0,0.0,87,0.00,,SCT250,0.00,VWS V13.01,2013-03-28 03:20:00,
2013-03-27 20:25:00,53.3,49.5,29.89,NW,309,0.0,0.0,87,0.00,,SCT250,0.00,VWS V13.01,2013-03-28 03:25:00,
2013-03-27 20:30:00,53.2,49.1,29.90,NNW,327,1.0,1.0,86,0.00,,SCT250,0.00,VWS V13.01,2013-03-28 03:30:00,
2013-03-27 20:35:00,52.7,48.6,29.90,NNW,342,0.0,1.0,86,0.00,,SCT250,0.00,VWS V13.01,2013-03-28 03:35:00,
2013-03-27 20:40:00,52.4,48.3,29.90,NE,49,0.0,1.0,86,0.00,,SCT250,0.00,VWS V13.01,2013-03-28 03:40:00,
2013-03-27 20:45:00,52.3,48.2,29.90,NE,49,0.0,1.0,86,0.00,,SCT250,0.00,VWS V13.01,2013-03-28 03:45:00,
2013-03-27 20:50:00,52.3,48.9,29.90,NE,49,0.0,1.0,88,0.00,,SCT250,0.00,VWS V13.01,2013-03-28 03:50:00,
2013-03-27 20:55:00,52.4,49.0,29.90,NE,49,0.0,1.0,88,0.00,,SCT250,0.00,VWS V13.01,2013-03-28 03:55:00,
2013-03-27 21:00:00,52.4,49.3,29.91,NE,37,1.0,1.0,89,0.00,,SCT250,0.00,VWS V13.01,2013-03-28 04:00:00,
2013-03-27 21:05:00,52.4,49.3,29.91,NNW,340,0.0,2.0,89,0.00,,BKN011,0.00,VWS V13.01,2013-03-28 04:05:00,
2013-03-27 21:08:00,52.4,49.3,29.91,NNW,340,0.0,2.0,89,0.00,,BKN011,0.00,VWS V13.01,2013-03-28 04:08:00,
2013-03-27 21:10:00,52.4,49.3,29.91,NNW,340,0.0,0.0,89,0.00,,BKN011,0.00,VWS V13.01,2013-03-28 04:10:00,
2013-03-27 21:15:00,52.4,49.3,29.92,NNW,340,0.0,0.0,89,0.00,,BKN011,0.00,VWS V13.01,2013-03-28 04:15:00,
2013-03-27 21:20:00,52.1,48.4,29.92,North,5,0.0,1.0,87,0.00,,BKN011,0.00,VWS V13.01,2013-03-28 04:20:00,
2013-03-27 21:25:00,51.6,47.6,29.92,North,5,0.0,1.0,86,0.00,,BKN011,0.00,VWS V13.01,2013-03-28 04:25:00,
2013-03-27 21:30:00,51.5,47.8,29.93,North,5,0.0,1.0,87,0.00,,BKN011,0.00,VWS V13.01,2013-03-28 04:30:00,
2013-03-27 21:35:00,51.4,47.7,29.93,North,5,0.0,2.0,87,0.00,,BKN011,0.00,VWS V13.01,2013-03-28 04:35:00,
2013-03-27 21:40:00,51.2,47.5,29.92,NE,40,0.0,1.0,87,0.00,,BKN011,0.00,VWS V13.01,2013-03-28 04:40:00,
2013-03-27 21:45:00,51.1,47.4,29.92,NE,40,0.0,1.0,87,0.00,,BKN011,0.00,VWS V13.01,2013-03-28 04:45:00,
2013-03-27 21:50:00,51.1,47.7,29.93,NE,40,0.0,1.0,88,0.00,,BKN011,0.00,VWS V13.01,2013-03-28 04:50:00,
2013-03-27 21:55:00,51.3,48.2,29.93,NE,40,0.0,1.0,89,0.00,,BKN011,0.00,VWS V13.01,2013-03-28 04:55:00,
2013-03-27 22:00:00,51.5,48.7,29.93,NE,40,0.0,1.0,90,0.00,,BKN011,0.00,VWS V13.01,2013-03-28 05:00:00,
2013-03-27 22:05:00,51.7,49.2,29.93,NE,40,0.0,1.0,91,0.00,,BKN011,0.00,VWS V13.01,2013-03-28 05:05:00,
2013-03-27 22:10:00,51.7,48.9,29.92,NE,40,0.0,0.0,90,0.00,,BKN011,0.00,VWS V13.01,2013-03-28 05:10:00,
2013-03-27 22:15:00,51.5,48.7,29.92,NE,40,0.0,1.0,90,0.00,,BKN011,0.00,VWS V13.01,2013-03-28 05:15:00,
2013-03-27 22:20:00,51.4,48.6,29.92,NE,40,0.0,1.0,90,0.00,,BKN011,0.00,VWS V13.01,2013-03-28 05:20:00,
2013-03-27 22:25:00,51.3,48.5,29.92,NE,40,0.0,1.0,90,0.00,,BKN011,0.00,VWS V13.01,2013-03-28 05:25:00,
2013-03-27 22:30:00,51.2,48.4,29.92,NE,40,0.0,1.0,90,0.00,,BKN011,0.00,VWS V13.01,2013-03-28 05:30:00,
2013-03-27 22:35:00,51.1,48.0,29.92,NE,40,0.0,1.0,89,0.00,,BKN011,0.00,VWS V13.01,2013-03-28 05:35:00,
2013-03-27 22:40:00,50.8,47.7,29.92,NE,40,0.0,0.0,89,0.00,,BKN011,0.00,VWS V13.01,2013-03-28 05:40:00,
2013-03-27 22:45:00,50.7,47.6,29.92,NE,40,0.0,0.0,89,0.00,,BKN011,0.00,VWS V13.01,2013-03-28 05:45:00,
2013-03-27 22:50:00,50.7,47.9,29.92,NE,40,0.0,0.0,90,0.00,,BKN011,0.00,VWS V13.01,2013-03-28 05:50:00,
2013-03-27 22:55:00,50.8,48.3,29.92,NE,40,0.0,1.0,91,0.00,,BKN011,0.00,VWS V13.01,2013-03-28 05:55:00,
2013-03-27 23:00:00,50.9,48.7,29.92,NE,40,0.0,1.0,92,0.00,,BKN011,0.00,VWS V13.01,2013-03-28 06:00:00,
2013-03-27 23:05:00,51.0,48.8,29.92,North,5,1.0,2.0,92,0.00,,SCT013,0.00,VWS V13.01,2013-03-28 06:05:00,
2013-03-27 23:10:00,51.0,48.8,29.93,WNW,286,1.0,2.0,92,0.00,,SCT013,0.00,VWS V13.01,2013-03-28 06:10:00,
2013-03-27 23:15:00,51.0,48.8,29.93,WNW,291,1.0,3.0,92,0.00,,SCT013,0.00,VWS V13.01,2013-03-28 06:15:00,
2013-03-27 23:20:00,51.0,48.8,29.93,WNW,297,0.0,3.0,92,0.00,,SCT013,0.00,VWS V13.01,2013-03-28 06:20:00,
2013-03-27 23:25:00,50.6,48.1,29.93,NE,34,0.0,3.0,91,0.00,,SCT013,0.00,VWS V13.01,2013-03-28 06:25:00,
2013-03-27 23:30:00,50.0,47.2,29.93,NE,36,0.0,3.0,90,0.00,,SCT013,0.00,VWS V13.01,2013-03-28 06:30:00,
2013-03-27 23:35:00,49.7,46.9,29.93,NE,36,0.0,3.0,90,0.00,,SCT013,0.00,VWS V13.01,2013-03-28 06:35:00,
2013-03-27 23:40:00,49.4,46.6,29.93,NE,36,0.0,1.0,90,0.00,,SCT013,0.00,VWS V13.01,2013-03-28 06:40:00,
2013-03-27 23:45:00,49.3,46.5,29.93,NE,36,0.0,1.0,90,0.00,,SCT013,0.00,VWS V13.01,2013-03-28 06:45:00,
2013-03-27 23:50:00,49.3,46.8,29.92,NE,36,0.0,1.0,91,0.00,,SCT013,0.00,VWS V13.01,2013-03-28 06:50:00,
2013-03-27 23:55:00,49.2,46.7,29.92,NE,36,0.0,1.0,91,0.00,,SCT013,0.00,VWS V13.01,2013-03-28 06:55:00,